LEMD METAR and TAF | Updated Today

LEMD METAR

Adolfo Suárez Madrid–Barajas Airport

Observation time: 30 min. ago

LEMD 032100Z 17003KT 130V220 CAVOK 05/02 Q1024 NOSIG

Need help? Read our tutorial on how to read METARs or read the parsed version below.

Adolfo Suárez Madrid–Barajas Airport (LEMD) METAR

  • Weather conditions on Fri, 03 Dec 2021 21:00:00 +0000 (30 min. ago):
  • Present conditions: Dry
  • Clouds: Clear skies
  • Visibility: Greater than 10 km
  • Wind: 170 degrees at 3 knots
  • Temperature: 5 celsius
  • Dew point: 2 celsius
  • Pressure: 1024 millibars
  • Remarks: None


Useful to know...

LEMD TAF

Adolfo Suárez Madrid–Barajas Airport

TAF LEMD 031700Z 0318/0424 VRB04KT CAVOK TX13/0415Z TNM01/0406Z PROB30 TEMPO 0412/0424 28010KT
Observation time: 4:30 hr. ago
Need help? Read our tutorial on how to read TAFs or read the parsed version below.

Parsed version of TAF for Adolfo Suárez Madrid–Barajas Airport (LEMD)

  • From 03 December at 18:00 UTC, to day 04 of the month at 24:00 UTC
  • Visibility: Greater than 10 km
  • Wind: Variable at 4
  • Expected to arise temporarily, from 04 December at 12:00 UTC, to day 04 of the month at 24:00 UTC
    Probability of 30%
  • Wind: 280 degrees at 10